sensor_id;sensor_type;location;lat;lon;timestamp;P1;durP1;ratioP1;P2;durP2;ratioP2
2624;SDS011;1322;53.256;10.386;2023-03-01T00:01:03;4.57;;;3.20;;
2624;SDS011;1322;53.256;10.386;2023-03-01T00:03:31;5.57;;;3.73;;
2624;SDS011;1322;53.256;10.386;2023-03-01T00:05:57;3.70;;;2.97;;
2624;SDS011;1322;53.256;10.386;2023-03-01T00:08:22;7.97;;;3.20;;
2624;SDS011;1322;53.256;10.386;2023-03-01T00:10:48;5.30;;;3.53;;
2624;SDS011;1322;53.256;10.386;2023-03-01T00:13:14;4.17;;;3.50;;
2624;SDS011;1322;53.256;10.386;2023-03-01T00:15:40;5.73;;;4.33;;
2624;SDS011;1322;53.256;10.386;2023-03-01T00:18:08;6.73;;;4.10;;
2624;SDS011;1322;53.256;10.386;2023-03-01T00:20:34;5.87;;;3.60;;
2624;SDS011;1322;53.256;10.386;2023-03-01T00:23:00;6.27;;;5.40;;
2624;SDS011;1322;53.256;10.386;2023-03-01T00:25:26;6.70;;;3.57;;
2624;SDS011;1322;53.256;10.386;2023-03-01T00:27:51;4.47;;;3.13;;
2624;SDS011;1322;53.256;10.386;2023-03-01T00:30:17;7.50;;;4.30;;
2624;SDS011;1322;53.256;10.386;2023-03-01T00:32:42;7.33;;;4.17;;
2624;SDS011;1322;53.256;10.386;2023-03-01T00:35:08;6.90;;;3.93;;
2624;SDS011;1322;53.256;10.386;2023-03-01T00:37:34;4.87;;;3.40;;
2624;SDS011;1322;53.256;10.386;2023-03-01T00:40:00;4.90;;;3.50;;
2624;SDS011;1322;53.256;10.386;2023-03-01T00:42:25;8.63;;;3.53;;
2624;SDS011;1322;53.256;10.386;2023-03-01T00:44:51;8.80;;;3.63;;
2624;SDS011;1322;53.256;10.386;2023-03-01T00:47:16;6.57;;;4.20;;
2624;SDS011;1322;53.256;10.386;2023-03-01T00:49:42;5.10;;;3.50;;
2624;SDS011;1322;53.256;10.386;2023-03-01T00:52:07;5.50;;;3.73;;
2624;SDS011;1322;53.256;10.386;2023-03-01T00:54:33;4.87;;;4.37;;
2624;SDS011;1322;53.256;10.386;2023-03-01T00:56:59;6.30;;;3.10;;
2624;SDS011;1322;53.256;10.386;2023-03-01T00:59:24;6.90;;;3.63;;
2624;SDS011;1322;53.256;10.386;2023-03-01T01:01:50;7.23;;;3.77;;
2624;SDS011;1322;53.256;10.386;2023-03-01T01:04:15;5.80;;;3.60;;
2624;SDS011;1322;53.256;10.386;2023-03-01T01:06:42;3.97;;;3.37;;
2624;SDS011;1322;53.256;10.386;2023-03-01T01:09:10;7.97;;;4.27;;
2624;SDS011;1322;53.256;10.386;2023-03-01T01:11:41;7.90;;;4.27;;
2624;SDS011;1322;53.256;10.386;2023-03-01T01:14:16;5.90;;;3.63;;
2624;SDS011;1322;53.256;10.386;2023-03-01T01:16:43;11.13;;;4.90;;
2624;SDS011;1322;53.256;10.386;2023-03-01T01:19:10;9.40;;;4.93;;
2624;SDS011;1322;53.256;10.386;2023-03-01T01:21:36;6.90;;;4.43;;
2624;SDS011;1322;53.256;10.386;2023-03-01T01:24:03;9.77;;;5.60;;
2624;SDS011;1322;53.256;10.386;2023-03-01T01:26:30;8.30;;;4.10;;
2624;SDS011;1322;53.256;10.386;2023-03-01T01:28:57;10.80;;;4.57;;
2624;SDS011;1322;53.256;10.386;2023-03-01T01:31:23;9.70;;;4.63;;
2624;SDS011;1322;53.256;10.386;2023-03-01T01:33:51;8.10;;;4.60;;
2624;SDS011;1322;53.256;10.386;2023-03-01T01:36:17;6.33;;;4.93;;
2624;SDS011;1322;53.256;10.386;2023-03-01T01:38:43;9.67;;;4.70;;
2624;SDS011;1322;53.256;10.386;2023-03-01T01:41:09;6.17;;;4.43;;
2624;SDS011;1322;53.256;10.386;2023-03-01T01:43:39;8.93;;;5.30;;
2624;SDS011;1322;53.256;10.386;2023-03-01T01:48:58;8.40;;;4.10;;
2624;SDS011;1322;53.256;10.386;2023-03-01T01:51:37;6.60;;;4.23;;
2624;SDS011;1322;53.256;10.386;2023-03-01T01:54:11;4.37;;;3.40;;
2624;SDS011;1322;53.256;10.386;2023-03-01T01:56:42;8.63;;;4.00;;
2624;SDS011;1322;53.256;10.386;2023-03-01T01:59:10;5.83;;;3.90;;
2624;SDS011;1322;53.256;10.386;2023-03-01T02:01:37;6.33;;;4.27;;
2624;SDS011;1322;53.256;10.386;2023-03-01T02:04:03;5.33;;;3.67;;
2624;SDS011;1322;53.256;10.386;2023-03-01T02:06:32;6.00;;;3.20;;
2624;SDS011;1322;53.256;10.386;2023-03-01T02:09:03;5.53;;;3.30;;
2624;SDS011;1322;53.256;10.386;2023-03-01T02:11:32;5.13;;;2.93;;
2624;SDS011;1322;53.256;10.386;2023-03-01T02:13:59;3.93;;;2.63;;
2624;SDS011;1322;53.256;10.386;2023-03-01T02:16:25;5.53;;;3.27;;
2624;SDS011;1322;53.256;10.386;2023-03-01T02:18:51;5.90;;;3.50;;
2624;SDS011;1322;53.256;10.386;2023-03-01T02:24:32;5.03;;;3.30;;
2624;SDS011;1322;53.256;10.386;2023-03-01T02:27:03;3.70;;;3.00;;
2624;SDS011;1322;53.256;10.386;2023-03-01T02:29:29;6.73;;;3.83;;
2624;SDS011;1322;53.256;10.386;2023-03-01T02:31:56;3.87;;;3.17;;
2624;SDS011;1322;53.256;10.386;2023-03-01T02:34:24;4.90;;;3.03;;
2624;SDS011;1322;53.256;10.386;2023-03-01T02:36:59;6.07;;;3.60;;
2624;SDS011;1322;53.256;10.386;2023-03-01T02:39:42;5.13;;;3.03;;
2624;SDS011;1322;53.256;10.386;2023-03-01T02:42:14;5.80;;;4.00;;
2624;SDS011;1322;53.256;10.386;2023-03-01T02:44:43;2.97;;;2.43;;
2624;SDS011;1322;53.256;10.386;2023-03-01T02:47:09;4.40;;;3.60;;
2624;SDS011;1322;53.256;10.386;2023-03-01T02:49:36;4.80;;;3.00;;
2624;SDS011;1322;53.256;10.386;2023-03-01T02:57:33;5.37;;;3.70;;
2624;SDS011;1322;53.256;10.386;2023-03-01T03:00:03;5.80;;;3.97;;
2624;SDS011;1322;53.256;10.386;2023-03-01T03:02:34;6.70;;;3.33;;
2624;SDS011;1322;53.256;10.386;2023-03-01T03:07:33;4.80;;;3.53;;
2624;SDS011;1322;53.256;10.386;2023-03-01T03:10:03;3.93;;;2.70;;
2624;SDS011;1322;53.256;10.386;2023-03-01T03:12:30;3.50;;;2.87;;
2624;SDS011;1322;53.256;10.386;2023-03-01T03:14:56;7.27;;;3.37;;
2624;SDS011;1322;53.256;10.386;2023-03-01T03:17:21;3.23;;;2.93;;
2624;SDS011;1322;53.256;10.386;2023-03-01T03:19:47;4.20;;;2.40;;
2624;SDS011;1322;53.256;10.386;2023-03-01T03:22:13;4.33;;;3.03;;
2624;SDS011;1322;53.256;10.386;2023-03-01T03:24:39;3.53;;;2.77;;
2624;SDS011;1322;53.256;10.386;2023-03-01T03:27:04;5.33;;;3.70;;
2624;SDS011;1322;53.256;10.386;2023-03-01T03:29:31;6.90;;;3.50;;
2624;SDS011;1322;53.256;10.386;2023-03-01T03:31:56;5.80;;;3.13;;
2624;SDS011;1322;53.256;10.386;2023-03-01T03:34:22;7.30;;;3.50;;
2624;SDS011;1322;53.256;10.386;2023-03-01T03:36:48;4.77;;;3.40;;
2624;SDS011;1322;53.256;10.386;2023-03-01T03:39:21;4.00;;;3.20;;
2624;SDS011;1322;53.256;10.386;2023-03-01T03:41:48;5.47;;;3.30;;
2624;SDS011;1322;53.256;10.386;2023-03-01T03:44:13;4.60;;;3.27;;
2624;SDS011;1322;53.256;10.386;2023-03-01T03:46:39;7.03;;;3.43;;
2624;SDS011;1322;53.256;10.386;2023-03-01T03:49:05;5.27;;;3.10;;
2624;SDS011;1322;53.256;10.386;2023-03-01T03:51:30;3.67;;;2.93;;
2624;SDS011;1322;53.256;10.386;2023-03-01T03:53:56;5.20;;;3.27;;
2624;SDS011;1322;53.256;10.386;2023-03-01T03:56:21;3.70;;;2.87;;
2624;SDS011;1322;53.256;10.386;2023-03-01T03:58:50;3.67;;;2.83;;
2624;SDS011;1322;53.256;10.386;2023-03-01T04:01:16;7.33;;;3.07;;
2624;SDS011;1322;53.256;10.386;2023-03-01T04:03:42;3.03;;;2.70;;
2624;SDS011;1322;53.256;10.386;2023-03-01T04:06:11;5.00;;;2.87;;
2624;SDS011;1322;53.256;10.386;2023-03-01T04:08:38;3.83;;;2.53;;
2624;SDS011;1322;53.256;10.386;2023-03-01T04:11:04;7.30;;;2.97;;
2624;SDS011;1322;53.256;10.386;2023-03-01T04:13:49;5.13;;;2.87;;
2624;SDS011;1322;53.256;10.386;2023-03-01T04:16:15;29.17;;;3.90;;
2624;SDS011;1322;53.256;10.386;2023-03-01T04:18:41;8.40;;;3.13;;
2624;SDS011;1322;53.256;10.386;2023-03-01T04:21:07;3.53;;;3.23;;
2624;SDS011;1322;53.256;10.386;2023-03-01T04:23:32;4.00;;;2.30;;
2624;SDS011;1322;53.256;10.386;2023-03-01T04:25:58;2.67;;;2.47;;
2624;SDS011;1322;53.256;10.386;2023-03-01T04:28:27;3.43;;;3.07;;
2624;SDS011;1322;53.256;10.386;2023-03-01T04:31:01;6.60;;;4.10;;
2624;SDS011;1322;53.256;10.386;2023-03-01T04:33:37;8.57;;;4.40;;
2624;SDS011;1322;53.256;10.386;2023-03-01T04:36:14;9.43;;;4.70;;
2624;SDS011;1322;53.256;10.386;2023-03-01T04:38:41;4.03;;;3.07;;
2624;SDS011;1322;53.256;10.386;2023-03-01T04:41:10;6.30;;;4.47;;
2624;SDS011;1322;53.256;10.386;2023-03-01T04:43:36;5.90;;;4.03;;
2624;SDS011;1322;53.256;10.386;2023-03-01T04:46:06;5.90;;;4.20;;
2624;SDS011;1322;53.256;10.386;2023-03-01T04:48:34;4.97;;;3.93;;
2624;SDS011;1322;53.256;10.386;2023-03-01T04:51:01;8.17;;;4.50;;
2624;SDS011;1322;53.256;10.386;2023-03-01T04:53:27;6.90;;;4.27;;
2624;SDS011;1322;53.256;10.386;2023-03-01T04:55:54;7.30;;;4.87;;
2624;SDS011;1322;53.256;10.386;2023-03-01T04:58:21;7.70;;;4.93;;
2624;SDS011;1322;53.256;10.386;2023-03-01T05:00:48;9.00;;;4.20;;
2624;SDS011;1322;53.256;10.386;2023-03-01T05:03:13;7.10;;;3.80;;
2624;SDS011;1322;53.256;10.386;2023-03-01T05:05:43;8.83;;;3.70;;
2624;SDS011;1322;53.256;10.386;2023-03-01T05:08:10;10.97;;;4.13;;
2624;SDS011;1322;53.256;10.386;2023-03-01T05:10:43;10.30;;;4.70;;
2624;SDS011;1322;53.256;10.386;2023-03-01T05:13:11;5.40;;;4.00;;
2624;SDS011;1322;53.256;10.386;2023-03-01T05:15:38;8.33;;;4.90;;
2624;SDS011;1322;53.256;10.386;2023-03-01T05:18:04;7.07;;;4.60;;
2624;SDS011;1322;53.256;10.386;2023-03-01T05:20:36;9.63;;;5.40;;
2624;SDS011;1322;53.256;10.386;2023-03-01T05:23:02;7.80;;;4.87;;
2624;SDS011;1322;53.256;10.386;2023-03-01T05:25:30;6.63;;;5.83;;
2624;SDS011;1322;53.256;10.386;2023-03-01T05:27:57;6.50;;;4.10;;
2624;SDS011;1322;53.256;10.386;2023-03-01T05:30:24;6.20;;;4.40;;
2624;SDS011;1322;53.256;10.386;2023-03-01T05:32:50;7.03;;;4.60;;
2624;SDS011;1322;53.256;10.386;2023-03-01T05:35:20;6.73;;;4.40;;
2624;SDS011;1322;53.256;10.386;2023-03-01T05:37:47;9.10;;;3.80;;
2624;SDS011;1322;53.256;10.386;2023-03-01T05:40:23;5.07;;;4.07;;
2624;SDS011;1322;53.256;10.386;2023-03-01T05:42:52;9.00;;;5.10;;
2624;SDS011;1322;53.256;10.386;2023-03-01T05:45:19;5.53;;;3.50;;
2624;SDS011;1322;53.256;10.386;2023-03-01T05:47:46;11.13;;;5.20;;
2624;SDS011;1322;53.256;10.386;2023-03-01T05:50:14;7.60;;;5.13;;
2624;SDS011;1322;53.256;10.386;2023-03-01T05:52:52;5.40;;;3.60;;
2624;SDS011;1322;53.256;10.386;2023-03-01T05:55:30;3.77;;;3.00;;
2624;SDS011;1322;53.256;10.386;2023-03-01T05:58:00;8.73;;;3.67;;
2624;SDS011;1322;53.256;10.386;2023-03-01T06:00:27;5.83;;;3.00;;
2624;SDS011;1322;53.256;10.386;2023-03-01T06:02:54;4.57;;;3.10;;
2624;SDS011;1322;53.256;10.386;2023-03-01T06:05:20;5.40;;;3.70;;
2624;SDS011;1322;53.256;10.386;2023-03-01T06:07:47;4.50;;;3.60;;
2624;SDS011;1322;53.256;10.386;2023-03-01T06:10:13;8.50;;;4.10;;
2624;SDS011;1322;53.256;10.386;2023-03-01T06:12:40;6.87;;;4.10;;
2624;SDS011;1322;53.256;10.386;2023-03-01T06:15:07;5.53;;;4.20;;
2624;SDS011;1322;53.256;10.386;2023-03-01T06:17:37;7.83;;;4.87;;
2624;SDS011;1322;53.256;10.386;2023-03-01T06:20:06;5.33;;;3.27;;
2624;SDS011;1322;53.256;10.386;2023-03-01T06:22:35;3.90;;;2.97;;
2624;SDS011;1322;53.256;10.386;2023-03-01T06:25:01;6.87;;;4.10;;
2624;SDS011;1322;53.256;10.386;2023-03-01T06:27:27;5.30;;;3.10;;
2624;SDS011;1322;53.256;10.386;2023-03-01T06:29:52;3.73;;;2.77;;
2624;SDS011;1322;53.256;10.386;2023-03-01T06:32:18;5.20;;;4.00;;
2624;SDS011;1322;53.256;10.386;2023-03-01T06:34:44;4.60;;;2.70;;
2624;SDS011;1322;53.256;10.386;2023-03-01T06:37:10;3.53;;;3.10;;
2624;SDS011;1322;53.256;10.386;2023-03-01T06:39:36;4.20;;;3.57;;
2624;SDS011;1322;53.256;10.386;2023-03-01T06:42:04;4.63;;;3.30;;
2624;SDS011;1322;53.256;10.386;2023-03-01T06:44:30;3.90;;;2.60;;
2624;SDS011;1322;53.256;10.386;2023-03-01T06:46:56;4.17;;;3.70;;
2624;SDS011;1322;53.256;10.386;2023-03-01T06:49:21;3.67;;;2.63;;
2624;SDS011;1322;53.256;10.386;2023-03-01T06:51:47;3.73;;;2.87;;
2624;SDS011;1322;53.256;10.386;2023-03-01T06:54:13;4.83;;;4.20;;
2624;SDS011;1322;53.256;10.386;2023-03-01T06:56:38;4.80;;;3.33;;
2624;SDS011;1322;53.256;10.386;2023-03-01T06:59:04;3.40;;;2.97;;
2624;SDS011;1322;53.256;10.386;2023-03-01T07:01:30;3.50;;;2.57;;
2624;SDS011;1322;53.256;10.386;2023-03-01T07:03:56;3.87;;;3.57;;
2624;SDS011;1322;53.256;10.386;2023-03-01T07:06:22;9.77;;;3.20;;
2624;SDS011;1322;53.256;10.386;2023-03-01T07:08:48;6.80;;;2.80;;
2624;SDS011;1322;53.256;10.386;2023-03-01T07:11:14;4.57;;;3.53;;
2624;SDS011;1322;53.256;10.386;2023-03-01T07:13:40;4.93;;;3.13;;
2624;SDS011;1322;53.256;10.386;2023-03-01T07:16:05;3.27;;;2.97;;
2624;SDS011;1322;53.256;10.386;2023-03-01T07:18:31;6.87;;;4.27;;
2624;SDS011;1322;53.256;10.386;2023-03-01T07:20:57;5.90;;;3.60;;
2624;SDS011;1322;53.256;10.386;2023-03-01T07:23:23;3.53;;;3.10;;
2624;SDS011;1322;53.256;10.386;2023-03-01T07:25:52;4.73;;;3.17;;
2624;SDS011;1322;53.256;10.386;2023-03-01T07:28:24;5.90;;;3.87;;
2624;SDS011;1322;53.256;10.386;2023-03-01T07:30:49;10.10;;;7.30;;
2624;SDS011;1322;53.256;10.386;2023-03-01T07:33:17;4.93;;;4.03;;
2624;SDS011;1322;53.256;10.386;2023-03-01T07:35:42;5.23;;;4.00;;
2624;SDS011;1322;53.256;10.386;2023-03-01T07:38:08;5.00;;;3.83;;
2624;SDS011;1322;53.256;10.386;2023-03-01T07:40:35;5.93;;;3.47;;
2624;SDS011;1322;53.256;10.386;2023-03-01T07:43:00;5.53;;;3.47;;
2624;SDS011;1322;53.256;10.386;2023-03-01T07:45:26;3.97;;;3.07;;
2624;SDS011;1322;53.256;10.386;2023-03-01T07:47:52;4.00;;;3.10;;
2624;SDS011;1322;53.256;10.386;2023-03-01T07:50:19;8.60;;;3.17;;
2624;SDS011;1322;53.256;10.386;2023-03-01T07:52:46;6.40;;;3.90;;
2624;SDS011;1322;53.256;10.386;2023-03-01T07:55:12;13.27;;;4.27;;
2624;SDS011;1322;53.256;10.386;2023-03-01T07:57:38;7.97;;;5.03;;
2624;SDS011;1322;53.256;10.386;2023-03-01T08:00:04;10.03;;;4.13;;
2624;SDS011;1322;53.256;10.386;2023-03-01T08:02:30;8.53;;;5.10;;
2624;SDS011;1322;53.256;10.386;2023-03-01T08:04:56;5.40;;;3.87;;
2624;SDS011;1322;53.256;10.386;2023-03-01T08:07:22;6.10;;;4.33;;
2624;SDS011;1322;53.256;10.386;2023-03-01T08:09:48;3.50;;;2.63;;
2624;SDS011;1322;53.256;10.386;2023-03-01T08:12:13;23.30;;;15.27;;
2624;SDS011;1322;53.256;10.386;2023-03-01T08:14:41;23.73;;;13.83;;
2624;SDS011;1322;53.256;10.386;2023-03-01T08:17:06;12.10;;;6.63;;
2624;SDS011;1322;53.256;10.386;2023-03-01T08:19:32;4.80;;;3.40;;
2624;SDS011;1322;53.256;10.386;2023-03-01T08:21:59;4.27;;;3.23;;
2624;SDS011;1322;53.256;10.386;2023-03-01T08:24:28;8.10;;;3.80;;
2624;SDS011;1322;53.256;10.386;2023-03-01T08:26:54;4.00;;;3.00;;
2624;SDS011;1322;53.256;10.386;2023-03-01T08:29:20;7.93;;;3.10;;
2624;SDS011;1322;53.256;10.386;2023-03-01T08:31:46;5.53;;;3.03;;
2624;SDS011;1322;53.256;10.386;2023-03-01T08:34:13;5.77;;;3.60;;
2624;SDS011;1322;53.256;10.386;2023-03-01T08:36:41;3.77;;;2.90;;
2624;SDS011;1322;53.256;10.386;2023-03-01T08:39:08;25.30;;;16.87;;
2624;SDS011;1322;53.256;10.386;2023-03-01T08:41:36;10.10;;;6.50;;
2624;SDS011;1322;53.256;10.386;2023-03-01T08:44:02;5.17;;;3.80;;
2624;SDS011;1322;53.256;10.386;2023-03-01T08:46:29;7.53;;;3.00;;
2624;SDS011;1322;53.256;10.386;2023-03-01T08:49:02;5.20;;;3.40;;
2624;SDS011;1322;53.256;10.386;2023-03-01T08:51:32;7.57;;;3.57;;
2624;SDS011;1322;53.256;10.386;2023-03-01T08:54:02;4.63;;;3.40;;
2624;SDS011;1322;53.256;10.386;2023-03-01T08:56:31;5.23;;;4.77;;
2624;SDS011;1322;53.256;10.386;2023-03-01T08:58:58;3.50;;;2.93;;
2624;SDS011;1322;53.256;10.386;2023-03-01T09:01:23;6.37;;;3.17;;
2624;SDS011;1322;53.256;10.386;2023-03-01T09:03:49;6.93;;;4.10;;
2624;SDS011;1322;53.256;10.386;2023-03-01T09:06:18;10.43;;;3.60;;
2624;SDS011;1322;53.256;10.386;2023-03-01T09:08:45;5.70;;;3.63;;
2624;SDS011;1322;53.256;10.386;2023-03-01T09:11:14;4.30;;;3.40;;
2624;SDS011;1322;53.256;10.386;2023-03-01T09:13:41;8.27;;;3.53;;
2624;SDS011;1322;53.256;10.386;2023-03-01T09:16:08;4.80;;;3.20;;
2624;SDS011;1322;53.256;10.386;2023-03-01T09:18:35;3.23;;;2.67;;
2624;SDS011;1322;53.256;10.386;2023-03-01T09:21:19;5.23;;;3.30;;
2624;SDS011;1322;53.256;10.386;2023-03-01T09:23:47;5.97;;;3.10;;
2624;SDS011;1322;53.256;10.386;2023-03-01T09:26:14;11.73;;;3.47;;
2624;SDS011;1322;53.256;10.386;2023-03-01T09:28:44;8.00;;;3.90;;
2624;SDS011;1322;53.256;10.386;2023-03-01T09:31:10;4.83;;;3.57;;
2624;SDS011;1322;53.256;10.386;2023-03-01T09:33:38;6.60;;;5.13;;
2624;SDS011;1322;53.256;10.386;2023-03-01T09:36:05;7.77;;;4.30;;
2624;SDS011;1322;53.256;10.386;2023-03-01T09:38:33;9.00;;;5.90;;
2624;SDS011;1322;53.256;10.386;2023-03-01T09:40:59;7.40;;;5.00;;
2624;SDS011;1322;53.256;10.386;2023-03-01T09:43:28;12.30;;;7.10;;
2624;SDS011;1322;53.256;10.386;2023-03-01T09:45:55;10.67;;;5.97;;
2624;SDS011;1322;53.256;10.386;2023-03-01T09:48:28;11.50;;;5.23;;
2624;SDS011;1322;53.256;10.386;2023-03-01T09:50:58;8.43;;;7.00;;
2624;SDS011;1322;53.256;10.386;2023-03-01T09:53:31;9.53;;;5.90;;
2624;SDS011;1322;53.256;10.386;2023-03-01T09:56:05;8.33;;;6.50;;
2624;SDS011;1322;53.256;10.386;2023-03-01T10:01:44;14.53;;;6.07;;
2624;SDS011;1322;53.256;10.386;2023-03-01T10:07:16;9.90;;;5.83;;
2624;SDS011;1322;53.256;10.386;2023-03-01T10:09:52;12.20;;;6.67;;
2624;SDS011;1322;53.256;10.386;2023-03-01T10:12:18;9.40;;;6.07;;
2624;SDS011;1322;53.256;10.386;2023-03-01T10:17:56;14.90;;;7.40;;
2624;SDS011;1322;53.256;10.386;2023-03-01T10:20:41;7.70;;;5.50;;
2624;SDS011;1322;53.256;10.386;2023-03-01T10:23:19;7.37;;;4.90;;
2624;SDS011;1322;53.256;10.386;2023-03-01T10:25:52;6.90;;;4.90;;
2624;SDS011;1322;53.256;10.386;2023-03-01T10:28:29;12.30;;;6.03;;
2624;SDS011;1322;53.256;10.386;2023-03-01T10:31:04;7.67;;;5.30;;
2624;SDS011;1322;53.256;10.386;2023-03-01T10:33:37;8.30;;;5.50;;
2624;SDS011;1322;53.256;10.386;2023-03-01T10:36:07;10.90;;;6.20;;
2624;SDS011;1322;53.256;10.386;2023-03-01T10:38:47;6.40;;;4.13;;
2624;SDS011;1322;53.256;10.386;2023-03-01T10:41:17;9.13;;;5.63;;
2624;SDS011;1322;53.256;10.386;2023-03-01T10:43:47;6.07;;;5.00;;
2624;SDS011;1322;53.256;10.386;2023-03-01T10:46:27;7.00;;;4.97;;
2624;SDS011;1322;53.256;10.386;2023-03-01T10:49:12;9.27;;;5.40;;
2624;SDS011;1322;53.256;10.386;2023-03-01T10:51:42;8.83;;;6.50;;
2624;SDS011;1322;53.256;10.386;2023-03-01T10:54:16;7.37;;;5.60;;
2624;SDS011;1322;53.256;10.386;2023-03-01T10:56:51;11.50;;;7.37;;
2624;SDS011;1322;53.256;10.386;2023-03-01T11:05:02;8.40;;;5.70;;
2624;SDS011;1322;53.256;10.386;2023-03-01T11:07:48;13.90;;;6.77;;
2624;SDS011;1322;53.256;10.386;2023-03-01T11:10:17;18.90;;;7.13;;
2624;SDS011;1322;53.256;10.386;2023-03-01T11:12:44;8.83;;;6.57;;
2624;SDS011;1322;53.256;10.386;2023-03-01T11:15:19;9.50;;;6.73;;
2624;SDS011;1322;53.256;10.386;2023-03-01T11:17:52;10.60;;;6.13;;
2624;SDS011;1322;53.256;10.386;2023-03-01T11:20:30;9.07;;;6.80;;
2624;SDS011;1322;53.256;10.386;2023-03-01T11:22:59;12.03;;;7.90;;
2624;SDS011;1322;53.256;10.386;2023-03-01T11:25:37;11.80;;;8.00;;
2624;SDS011;1322;53.256;10.386;2023-03-01T11:28:07;14.43;;;7.47;;
2624;SDS011;1322;53.256;10.386;2023-03-01T11:33:50;10.80;;;7.43;;
2624;SDS011;1322;53.256;10.386;2023-03-01T11:38:56;14.20;;;7.90;;
2624;SDS011;1322;53.256;10.386;2023-03-01T11:41:29;11.67;;;7.60;;
2624;SDS011;1322;53.256;10.386;2023-03-01T11:44:04;9.23;;;6.97;;
2624;SDS011;1322;53.256;10.386;2023-03-01T11:52:03;11.17;;;7.53;;
2624;SDS011;1322;53.256;10.386;2023-03-01T11:55:03;11.00;;;7.20;;
2624;SDS011;1322;53.256;10.386;2023-03-01T12:05:36;16.20;;;7.80;;
2624;SDS011;1322;53.256;10.386;2023-03-01T12:08:20;7.97;;;6.37;;
2624;SDS011;1322;53.256;10.386;2023-03-01T12:14:08;10.07;;;6.77;;
2624;SDS011;1322;53.256;10.386;2023-03-01T12:22:12;9.97;;;6.97;;
2624;SDS011;1322;53.256;10.386;2023-03-01T12:33:19;14.73;;;8.57;;
2624;SDS011;1322;53.256;10.386;2023-03-01T12:38:42;10.73;;;7.70;;
2624;SDS011;1322;53.256;10.386;2023-03-01T12:44:13;12.60;;;8.57;;
2624;SDS011;1322;53.256;10.386;2023-03-01T12:51:39;12.53;;;8.87;;
2624;SDS011;1322;53.256;10.386;2023-03-01T12:56:50;11.07;;;8.40;;
2624;SDS011;1322;53.256;10.386;2023-03-01T13:04:16;13.10;;;9.40;;
2624;SDS011;1322;53.256;10.386;2023-03-01T13:17:58;13.23;;;9.40;;
2624;SDS011;1322;53.256;10.386;2023-03-01T13:20:45;11.77;;;8.10;;
2624;SDS011;1322;53.256;10.386;2023-03-01T13:29:11;14.80;;;10.03;;
2624;SDS011;1322;53.256;10.386;2023-03-01T13:33:44;14.30;;;9.73;;
2624;SDS011;1322;53.256;10.386;2023-03-01T13:46:48;13.03;;;8.27;;
2624;SDS011;1322;53.256;10.386;2023-03-01T13:49:19;12.63;;;8.33;;
2624;SDS011;1322;53.256;10.386;2023-03-01T13:51:51;12.10;;;8.77;;
2624;SDS011;1322;53.256;10.386;2023-03-01T13:54:35;11.07;;;9.20;;
2624;SDS011;1322;53.256;10.386;2023-03-01T13:57:03;10.00;;;7.67;;
2624;SDS011;1322;53.256;10.386;2023-03-01T13:59:29;14.57;;;7.70;;
2624;SDS011;1322;53.256;10.386;2023-03-01T14:01:59;10.80;;;8.27;;
2624;SDS011;1322;53.256;10.386;2023-03-01T14:04:32;9.80;;;7.57;;
2624;SDS011;1322;53.256;10.386;2023-03-01T14:07:16;11.23;;;8.20;;
2624;SDS011;1322;53.256;10.386;2023-03-01T14:09:44;10.47;;;7.73;;
2624;SDS011;1322;53.256;10.386;2023-03-01T14:14:45;9.67;;;6.53;;
2624;SDS011;1322;53.256;10.386;2023-03-01T14:22:52;9.93;;;7.40;;
2624;SDS011;1322;53.256;10.386;2023-03-01T14:27:54;11.40;;;7.63;;
2624;SDS011;1322;53.256;10.386;2023-03-01T14:30:33;14.73;;;8.87;;
2624;SDS011;1322;53.256;10.386;2023-03-01T14:33:03;13.53;;;9.20;;
2624;SDS011;1322;53.256;10.386;2023-03-01T14:35:35;10.03;;;7.80;;
2624;SDS011;1322;53.256;10.386;2023-03-01T14:38:02;10.90;;;7.83;;
2624;SDS011;1322;53.256;10.386;2023-03-01T14:42:56;11.07;;;8.20;;
2624;SDS011;1322;53.256;10.386;2023-03-01T14:45:24;8.80;;;7.20;;
2624;SDS011;1322;53.256;10.386;2023-03-01T14:47:51;10.30;;;7.67;;
2624;SDS011;1322;53.256;10.386;2023-03-01T14:50:25;12.53;;;7.70;;
2624;SDS011;1322;53.256;10.386;2023-03-01T14:52:53;10.27;;;8.50;;
2624;SDS011;1322;53.256;10.386;2023-03-01T14:55:24;13.13;;;7.77;;
2624;SDS011;1322;53.256;10.386;2023-03-01T14:57:53;13.10;;;8.00;;
2624;SDS011;1322;53.256;10.386;2023-03-01T15:02:50;11.53;;;7.47;;
2624;SDS011;1322;53.256;10.386;2023-03-01T15:05:18;11.70;;;7.53;;
2624;SDS011;1322;53.256;10.386;2023-03-01T15:07:52;12.30;;;8.00;;
2624;SDS011;1322;53.256;10.386;2023-03-01T15:10:19;11.73;;;7.93;;
2624;SDS011;1322;53.256;10.386;2023-03-01T15:12:51;9.27;;;6.83;;
2624;SDS011;1322;53.256;10.386;2023-03-01T15:18:15;12.63;;;7.50;;
2624;SDS011;1322;53.256;10.386;2023-03-01T15:20:51;10.73;;;7.43;;
2624;SDS011;1322;53.256;10.386;2023-03-01T15:25:47;9.90;;;7.57;;
2624;SDS011;1322;53.256;10.386;2023-03-01T15:28:21;10.93;;;7.30;;
2624;SDS011;1322;53.256;10.386;2023-03-01T15:31:00;9.40;;;6.37;;
2624;SDS011;1322;53.256;10.386;2023-03-01T15:33:30;14.87;;;8.30;;
2624;SDS011;1322;53.256;10.386;2023-03-01T15:35:59;9.27;;;7.37;;
2624;SDS011;1322;53.256;10.386;2023-03-01T15:41:52;10.40;;;6.93;;
2624;SDS011;1322;53.256;10.386;2023-03-01T15:44:23;12.27;;;7.43;;
2624;SDS011;1322;53.256;10.386;2023-03-01T15:46:54;10.33;;;7.10;;
2624;SDS011;1322;53.256;10.386;2023-03-01T15:51:46;12.13;;;7.00;;
2624;SDS011;1322;53.256;10.386;2023-03-01T15:54:19;8.90;;;6.90;;
2624;SDS011;1322;53.256;10.386;2023-03-01T15:56:46;10.50;;;7.47;;
2624;SDS011;1322;53.256;10.386;2023-03-01T15:59:12;12.40;;;8.73;;
2624;SDS011;1322;53.256;10.386;2023-03-01T16:01:39;12.30;;;8.07;;
2624;SDS011;1322;53.256;10.386;2023-03-01T16:04:05;10.87;;;7.53;;
2624;SDS011;1322;53.256;10.386;2023-03-01T16:06:31;8.43;;;7.53;;
2624;SDS011;1322;53.256;10.386;2023-03-01T16:08:56;12.73;;;6.90;;
2624;SDS011;1322;53.256;10.386;2023-03-01T16:11:22;11.13;;;7.53;;
2624;SDS011;1322;53.256;10.386;2023-03-01T16:13:48;8.73;;;6.90;;
2624;SDS011;1322;53.256;10.386;2023-03-01T16:16:14;8.70;;;7.20;;
2624;SDS011;1322;53.256;10.386;2023-03-01T16:18:42;9.40;;;7.43;;
2624;SDS011;1322;53.256;10.386;2023-03-01T16:21:11;11.10;;;7.73;;
2624;SDS011;1322;53.256;10.386;2023-03-01T16:23:38;8.40;;;6.43;;
2624;SDS011;1322;53.256;10.386;2023-03-01T16:26:04;9.20;;;6.63;;
2624;SDS011;1322;53.256;10.386;2023-03-01T16:28:29;10.97;;;6.70;;
2624;SDS011;1322;53.256;10.386;2023-03-01T16:30:55;10.40;;;6.87;;
2624;SDS011;1322;53.256;10.386;2023-03-01T16:33:21;9.53;;;6.57;;
2624;SDS011;1322;53.256;10.386;2023-03-01T16:35:46;8.67;;;6.67;;
2624;SDS011;1322;53.256;10.386;2023-03-01T16:38:12;9.33;;;6.57;;
2624;SDS011;1322;53.256;10.386;2023-03-01T16:40:38;7.23;;;6.20;;
2624;SDS011;1322;53.256;10.386;2023-03-01T16:43:03;10.60;;;6.80;;
2624;SDS011;1322;53.256;10.386;2023-03-01T16:45:32;10.43;;;6.00;;
2624;SDS011;1322;53.256;10.386;2023-03-01T16:48:00;7.93;;;6.23;;
2624;SDS011;1322;53.256;10.386;2023-03-01T16:50:26;8.10;;;6.00;;
2624;SDS011;1322;53.256;10.386;2023-03-01T16:52:52;9.37;;;6.87;;
2624;SDS011;1322;53.256;10.386;2023-03-01T16:55:18;9.20;;;6.30;;
2624;SDS011;1322;53.256;10.386;2023-03-01T16:57:45;11.00;;;6.70;;
2624;SDS011;1322;53.256;10.386;2023-03-01T17:00:11;10.10;;;5.70;;
2624;SDS011;1322;53.256;10.386;2023-03-01T17:02:38;9.47;;;5.83;;
2624;SDS011;1322;53.256;10.386;2023-03-01T17:05:05;9.73;;;7.30;;
2624;SDS011;1322;53.256;10.386;2023-03-01T17:07:32;9.83;;;6.20;;
2624;SDS011;1322;53.256;10.386;2023-03-01T17:09:59;8.37;;;6.27;;
2624;SDS011;1322;53.256;10.386;2023-03-01T17:12:25;8.40;;;6.40;;
2624;SDS011;1322;53.256;10.386;2023-03-01T17:14:51;11.30;;;7.07;;
2624;SDS011;1322;53.256;10.386;2023-03-01T17:17:16;12.10;;;7.40;;
2624;SDS011;1322;53.256;10.386;2023-03-01T17:19:42;7.87;;;5.40;;
2624;SDS011;1322;53.256;10.386;2023-03-01T17:22:09;9.53;;;5.77;;
2624;SDS011;1322;53.256;10.386;2023-03-01T17:24:36;5.57;;;4.40;;
2624;SDS011;1322;53.256;10.386;2023-03-01T17:27:03;10.80;;;4.90;;